Hunmanby, United Kingdom
Current Conditions -  °F | °C
As of 5:50 AM on Sunday 21 Dec 2014 (Local Time) from EGXV Reporting Station
Broken Clouds Broken Clouds  
Wind Chill: 41°   Ceiling: 18000
Heat Index: 45°   Visibility: 6mi
Dew Point: 37°   Wind: 6mph
Humidity: 76%   Direction: 200°SSW
Pressure: 30.18"   Gusts: NA
Location:  54.18°N, 0.32°W
Report Text: EGXV 210550Z AUTO 20005KT 9999 SCT040/// BKN180/// 07/03 Q1022
Loading
Personal Weather Stations






























Interactive Weather Map New forecast layout! Learn more

10-Day Weather Forecast

Advertisements
Track Severe Weather on mobile